Time;durP1;ratioP1;P1;durP2;ratioP2;P2;SDS_P1;SDS_P2;PMS_P1;PMS_P2;Temp;Humidity;BMP_temperature;BMP_pressure;BME280_temperature;BME280_humidity;BME280_pressure;Samples;Min_cycle;Max_cycle;Signal;HPM_P1;HPM_P2
2022/08/04 00:01:29;;;;;;;9.23;1.50;;;;;;;32.19;25.79;100581.50;4889645;29;20049;-75
2022/08/04 00:04:03;;;;;;;7.57;1.35;;;;;;;31.86;26.42;100584.44;4892243;29;20554;-73
2022/08/04 00:06:45;;;;;;;2.38;1.23;;;;;;;31.79;26.34;100583.94;4888263;29;20145;-73
2022/08/04 00:09:21;;;;;;;2.55;1.23;;;;;;;31.79;26.63;100580.44;4885859;29;20057;-71
2022/08/04 00:11:53;;;;;;;3.30;1.30;;;;;;;31.68;26.66;100583.75;4889770;29;20053;-73
2022/08/04 00:14:22;;;;;;;;;;;;;;;31.50;27.16;100580.41;4889499;29;20056;-74
2022/08/04 00:16:53;;;;;;;5.80;1.60;;;;;;;31.54;26.75;100575.72;4888084;29;19924;-72
2022/08/04 00:19:32;;;;;;;2.28;1.20;;;;;;;31.48;26.38;100571.63;4885034;29;20133;-74
2022/08/04 00:22:04;;;;;;;5.45;1.52;;;;;;;31.33;26.92;100567.16;4889737;29;20056;-70
2022/08/04 00:24:36;;;;;;;8.48;2.22;;;;;;;31.22;26.61;100566.00;4889754;29;20385;-74
2022/08/04 00:27:05;;;;;;;4.82;1.50;;;;;;;31.27;27.22;100574.63;4887155;29;20044;-74
2022/08/04 00:29:34;;;;;;;3.55;1.50;;;;;;;31.32;27.40;100566.31;4894152;29;20048;-74
2022/08/04 00:32:03;;;;;;;25.90;3.95;;;;;;;31.33;26.21;100567.16;4884004;29;20467;-74
2022/08/04 00:34:34;;;;;;;3.38;1.30;;;;;;;31.28;26.78;100573.66;4884677;29;20052;-74
2022/08/04 00:37:03;;;;;;;2.10;1.33;;;;;;;31.26;26.81;100577.38;4892704;29;20059;-75
2022/08/04 00:39:34;;;;;;;4.57;1.40;;;;;;;31.22;26.32;100570.47;4901122;29;20094;-72
2022/08/04 00:42:24;;;;;;;3.63;1.40;;;;;;;30.99;27.13;100580.72;4882330;29;20500;-73
2022/08/04 00:45:15;;;;;;;2.85;1.10;;;;;;;30.94;26.88;100571.25;4887257;29;20500;-76
2022/08/04 00:47:58;;;;;;;3.65;1.17;;;;;;;30.81;27.06;100576.41;4881450;29;20111;-72
2022/08/04 00:50:32;;;;;;;3.10;1.17;;;;;;;30.68;27.27;100577.13;4883834;29;20159;-74
2022/08/04 00:53:10;;;;;;;6.03;1.90;;;;;;;30.64;27.53;100569.38;4889136;29;20102;-73
2022/08/04 00:56:10;;;;;;;4.93;1.50;;;;;;;30.52;27.22;100565.59;4879854;29;20056;-74
2022/08/04 00:59:00;;;;;;;2.33;1.20;;;;;;;30.51;27.18;100569.22;4870460;29;20049;-75
2022/08/04 01:01:44;;;;;;;4.63;1.33;;;;;;;30.35;27.93;100563.00;4883399;29;20056;-73
2022/08/04 01:04:21;;;;;;;7.60;2.30;;;;;;;30.15;28.30;100561.44;4887160;29;20760;-73
2022/08/04 01:07:11;;;;;;;4.30;1.30;;;;;;;30.03;27.68;100565.63;4892652;29;20060;-74
2022/08/04 01:09:54;;;;;;;4.60;1.45;;;;;;;29.90;27.24;100557.44;4875442;29;20056;-77
2022/08/04 01:12:44;;;;;;;3.63;1.40;;;;;;;29.84;27.30;100549.78;4891750;29;20064;-76
2022/08/04 01:15:23;;;;;;;2.92;1.17;;;;;;;29.79;26.97;100562.50;4881801;29;20496;-75
2022/08/04 01:18:05;;;;;;;3.67;0.98;;;;;;;29.58;27.27;100554.66;4899534;29;20056;-72
2022/08/04 01:20:38;;;;;;;2.38;1.27;;;;;;;29.59;26.70;100552.84;4889664;29;20148;-74
2022/08/04 01:24:00;;;;;;;3.13;1.10;;;;;;;29.48;26.79;100536.56;4892812;29;20053;-74
2022/08/04 01:26:47;;;;;;;2.53;1.33;;;;;;;29.54;26.31;100545.09;4828113;29;20791;-76
2022/08/04 01:29:18;;;;;;;3.17;1.10;;;;;;;29.64;25.92;100546.34;4835188;29;20661;-75
2022/08/04 01:32:01;;;;;;;5.78;1.10;;;;;;;29.73;25.51;100545.00;4867138;29;20060;-77
2022/08/04 01:34:32;;;;;;;3.53;1.13;;;;;;;29.78;24.95;100548.31;4901541;29;20729;-76
2022/08/04 01:37:05;;;;;;;4.63;1.08;;;;;;;29.74;24.99;100552.09;4881894;29;20049;-77
2022/08/04 01:39:42;;;;;;;6.57;1.00;;;;;;;29.63;24.82;100539.28;4887707;29;20060;-75
2022/08/04 01:42:12;;;;;;;2.42;1.10;;;;;;;29.49;24.35;100548.97;4887064;29;20064;-74
2022/08/04 01:44:44;;;;;;;1.55;0.82;;;;;;;29.36;24.58;100549.59;4891212;28;20112;-75
2022/08/04 01:47:16;;;;;;;3.25;0.80;;;;;;;29.32;24.77;100549.84;4888517;29;20108;-75
2022/08/04 01:49:52;;;;;;;2.90;0.90;;;;;;;29.28;24.53;100550.97;4884430;29;20060;-74
2022/08/04 01:52:21;;;;;;;3.00;0.80;;;;;;;29.12;24.86;100550.88;4886887;29;20044;-75
2022/08/04 01:54:52;;;;;;;1.92;0.80;;;;;;;28.89;24.93;100560.00;4874127;29;20052;-74
2022/08/04 01:57:24;;;;;;;1.13;0.85;;;;;;;28.70;24.94;100552.03;4888505;29;20075;-75
2022/08/04 01:59:55;;;;;;;1.88;1.20;;;;;;;28.65;25.38;100556.75;4882896;29;20108;-74
2022/08/04 02:02:24;;;;;;;2.63;1.00;;;;;;;28.63;25.74;100553.28;4891538;29;20082;-74
2022/08/04 02:04:52;;;;;;;3.28;1.30;;;;;;;28.61;25.66;100543.59;4893463;29;20104;-73
2022/08/04 02:07:41;;;;;;;2.20;1.00;;;;;;;28.59;26.13;100545.47;4887571;29;20060;-74
2022/08/04 02:10:22;;;;;;;3.95;1.10;;;;;;;28.63;26.48;100539.97;4868739;29;20049;-76
2022/08/04 02:12:58;;;;;;;5.88;1.00;;;;;;;28.61;26.64;100548.03;4878512;29;20068;-75
2022/08/04 02:15:37;;;;;;;1.65;1.00;;;;;;;28.56;26.56;100544.75;4889732;29;20056;-75
2022/08/04 02:18:12;;;;;;;2.88;1.23;;;;;;;28.50;26.96;100537.94;4892869;29;20067;-75
2022/08/04 02:20:45;;;;;;;2.47;1.10;;;;;;;28.26;27.73;100552.38;4888529;29;20048;-75
2022/08/04 02:23:16;;;;;;;3.60;1.45;;;;;;;28.09;28.09;100547.84;4886753;29;20666;-76
2022/08/04 02:25:49;;;;;;;4.38;1.50;;;;;;;28.00;28.38;100554.47;4892049;29;20067;-75
2022/08/04 02:28:28;;;;;;;3.97;1.23;;;;;;;27.99;28.82;100556.25;4893989;29;20057;-75
2022/08/04 02:31:09;;;;;;;2.38;1.02;;;;;;;27.79;29.31;100548.31;4888482;29;20061;-78
2022/08/04 02:33:39;;;;;;;2.97;1.27;;;;;;;27.77;29.72;100561.66;4879806;29;20076;-76
2022/08/04 02:36:12;;;;;;;3.35;1.23;;;;;;;27.74;30.00;100567.13;4891052;29;20063;-77
2022/08/04 02:38:55;;;;;;;3.33;1.20;;;;;;;27.62;30.51;100559.69;4880979;29;20056;-77
2022/08/04 02:41:26;;;;;;;3.20;1.42;;;;;;;27.43;30.99;100570.25;4887477;29;20064;-76
2022/08/04 02:43:58;;;;;;;2.05;1.27;;;;;;;27.28;31.26;100577.13;4888132;29;20052;-77
2022/08/04 02:46:28;;;;;;;;;;;;;;;27.22;31.45;100579.16;4886548;29;20389;-75
2022/08/04 02:48:57;;;;;;;1.45;1.08;;;;;;;27.02;32.08;100587.94;4893445;29;19928;-77
2022/08/04 02:51:36;;;;;;;4.53;1.60;;;;;;;26.85;32.65;100585.97;4895182;29;20662;-76
2022/08/04 02:54:14;;;;;;;2.65;1.08;;;;;;;26.75;32.85;100582.81;4893574;29;20052;-78
2022/08/04 02:56:46;;;;;;;3.45;1.35;;;;;;;26.69;33.43;100588.41;4894508;29;20156;-79
2022/08/04 02:59:15;;;;;;;2.75;1.25;;;;;;;26.63;33.32;100581.53;4891477;29;20056;-78
2022/08/04 03:01:45;;;;;;;5.55;1.73;;;;;;;26.58;33.61;100582.66;4891687;29;20656;-76
2022/08/04 03:04:36;;;;;;;2.00;1.35;;;;;;;26.45;33.62;100577.78;4889987;29;20107;-76
2022/08/04 03:07:40;;;;;;;2.72;1.40;;;;;;;26.34;33.66;100582.63;4890164;29;20080;-76
2022/08/04 03:10:27;;;;;;;6.95;1.30;;;;;;;26.27;33.27;100589.09;4889147;29;20057;-74
2022/08/04 03:13:29;;;;;;;3.10;1.52;;;;;;;26.21;33.37;100599.97;4892906;29;20491;-74
2022/08/04 03:16:10;;;;;;;2.75;1.40;;;;;;;26.11;33.76;100599.41;4890251;29;20052;-77
2022/08/04 03:19:20;;;;;;;3.13;1.45;;;;;;;26.06;34.94;100622.59;4887283;29;20064;-75
2022/08/04 03:22:17;;;;;;;4.57;1.33;;;;;;;25.99;34.07;100621.97;4891303;29;20562;-75
2022/08/04 03:25:22;;;;;;;3.28;1.45;;;;;;;25.87;33.99;100630.38;4890685;29;20060;-77
2022/08/04 03:28:34;;;;;;;2.13;1.58;;;;;;;25.77;34.84;100629.81;4890148;29;20100;-77
2022/08/04 03:31:32;;;;;;;1.90;1.38;;;;;;;25.69;35.01;100640.66;4835170;29;20115;-76
2022/08/04 03:34:17;;;;;;;2.30;1.30;;;;;;;25.61;35.02;100642.72;4891585;29;20100;-76
2022/08/04 03:37:35;;;;;;;2.42;1.40;;;;;;;25.53;35.53;100644.75;4884201;29;20499;-76
2022/08/04 03:40:38;;;;;;;7.28;1.77;;;;;;;25.42;36.26;100652.22;4849082;29;20055;-76
2022/08/04 03:43:48;;;;;;;3.47;1.80;;;;;;;25.31;36.63;100659.66;4893163;29;20674;-76
2022/08/04 03:46:45;;;;;;;3.17;1.63;;;;;;;25.09;36.65;100644.44;4889747;29;20056;-77
2022/08/04 03:50:05;;;;;;;2.67;1.45;;;;;;;25.06;37.59;100655.13;4884145;29;20142;-76
2022/08/04 03:53:08;;;;;;;3.28;1.70;;;;;;;24.91;38.13;100666.19;4829463;29;20050;-76
2022/08/04 03:56:27;;;;;;;3.45;1.75;;;;;;;24.73;38.40;100673.78;4814142;29;20050;-79
2022/08/04 03:59:23;;;;;;;3.85;1.70;;;;;;;24.51;39.44;100680.63;4883697;29;20487;-75
2022/08/04 04:02:27;;;;;;;4.43;1.60;;;;;;;24.23;39.77;100694.63;4897786;29;20056;-77
2022/08/04 04:05:18;;;;;;;4.40;1.77;;;;;;;24.07;40.26;100709.16;4878650;29;20057;-73
2022/08/04 04:08:17;;;;;;;3.22;1.75;;;;;;;23.91;40.93;100714.84;4888002;29;20048;-77
2022/08/04 04:11:04;;;;;;;3.75;1.65;;;;;;;23.71;41.04;100709.19;4894689;29;20052;-77
2022/08/04 04:13:58;;;;;;;2.55;1.70;;;;;;;23.51;41.19;100710.56;4895721;29;20106;-79
2022/08/04 04:17:03;;;;;;;3.45;1.65;;;;;;;23.38;41.53;100727.63;4898354;29;20591;-78
2022/08/04 04:19:47;;;;;;;3.97;1.80;;;;;;;23.25;41.54;100745.53;4894935;29;20053;-77
2022/08/04 04:22:37;;;;;;;4.45;1.85;;;;;;;23.05;42.62;100747.75;4894500;29;20112;-75
2022/08/04 04:25:24;;;;;;;5.72;2.03;;;;;;;22.79;42.82;100752.66;4890984;29;20067;-76
2022/08/04 04:28:11;;;;;;;3.15;2.30;;;;;;;22.52;43.57;100756.72;4887589;29;20060;-76
2022/08/04 04:30:55;;;;;;;2.45;1.83;;;;;;;22.37;43.81;100759.66;4891966;29;20056;-75
2022/08/04 04:33:38;;;;;;;5.93;1.98;;;;;;;22.29;43.90;100753.69;4894237;29;20196;-77
2022/08/04 04:36:14;;;;;;;3.47;2.17;;;;;;;22.20;43.95;100757.31;4891512;29;20495;-76
2022/08/04 04:39:01;;;;;;;2.80;1.80;;;;;;;22.15;44.04;100767.03;4893950;29;20095;-76
2022/08/04 04:41:52;;;;;;;2.83;1.80;;;;;;;22.09;44.30;100781.22;4894044;29;20136;-75
2022/08/04 04:45:00;;;;;;;4.15;2.15;;;;;;;22.04;44.99;100784.84;4890195;29;21262;-75
2022/08/04 04:47:38;;;;;;;4.60;2.10;;;;;;;21.95;44.89;100788.50;4893116;29;20124;-76
2022/08/04 04:50:14;;;;;;;9.35;4.00;;;;;;;21.83;45.22;100792.22;4893548;29;20192;-73
2022/08/04 04:52:50;;;;;;;3.88;2.10;;;;;;;21.68;45.45;100795.06;4887079;29;20053;-76
2022/08/04 04:55:25;;;;;;;3.58;2.00;;;;;;;21.54;45.94;100797.94;4900355;29;20056;-77
2022/08/04 04:58:00;;;;;;;3.85;2.08;;;;;;;21.35;46.36;100802.56;4896805;29;20052;-77
2022/08/04 05:00:40;;;;;;;2.42;1.80;;;;;;;21.17;48.27;100800.19;4894021;29;20635;-75
2022/08/04 05:03:31;;;;;;;4.85;2.20;;;;;;;21.07;47.68;100812.56;4889731;29;20064;-74
2022/08/04 05:06:17;;;;;;;2.20;1.77;;;;;;;21.02;47.56;100806.50;4890550;29;20045;-76
2022/08/04 05:09:00;;;;;;;4.50;2.33;;;;;;;20.90;48.39;100815.44;4893685;29;20048;-75
2022/08/04 05:12:05;;;;;;;6.43;3.83;;;;;;;20.71;48.92;100815.66;4886616;29;20052;-76
2022/08/04 05:14:40;;;;;;;5.97;4.55;;;;;;;20.53;49.68;100815.81;4890116;29;20578;-75
2022/08/04 05:17:17;;;;;;;5.72;3.83;;;;;;;20.34;50.47;100822.13;4883705;29;20045;-74
2022/08/04 05:20:00;;;;;;;6.88;3.90;;;;;;;20.15;51.08;100827.56;4896178;29;20060;-76
2022/08/04 05:22:33;;;;;;;6.28;3.10;;;;;;;19.98;52.15;100824.22;4892767;29;20127;-76
2022/08/04 05:25:06;;;;;;;6.72;3.15;;;;;;;19.84;51.95;100829.59;4894580;29;20076;-76
2022/08/04 05:27:42;;;;;;;7.63;2.75;;;;;;;19.72;53.15;100838.38;4892254;29;20060;-76
2022/08/04 05:30:12;;;;;;;4.07;2.20;;;;;;;19.58;52.69;100835.81;4898557;29;20104;-76
2022/08/04 05:32:47;;;;;;;5.00;2.40;;;;;;;19.45;53.68;100849.94;4884628;29;20057;-75
2022/08/04 05:35:22;;;;;;;3.90;1.92;;;;;;;19.29;54.45;100841.25;4910096;29;20048;-76
2022/08/04 05:37:55;;;;;;;3.22;2.25;;;;;;;19.24;54.82;100835.13;4903436;29;20132;-76
2022/08/04 05:40:25;;;;;;;4.03;2.40;;;;;;;19.26;54.61;100836.00;4889474;29;20049;-75
2022/08/04 05:42:57;;;;;;;3.83;2.60;;;;;;;19.30;54.53;100832.50;4894631;29;20049;-75
2022/08/04 05:45:33;;;;;;;6.90;2.20;;;;;;;19.33;54.69;100832.47;4892156;29;20064;-76
2022/08/04 05:48:04;;;;;;;5.97;2.65;;;;;;;19.30;54.63;100843.00;4892444;29;20048;-76
2022/08/04 05:50:33;;;;;;;5.07;2.50;;;;;;;19.19;54.99;100855.28;4893032;29;20141;-76
2022/08/04 05:53:03;;;;;;;5.20;2.83;;;;;;;19.07;55.54;100845.72;4891510;29;20063;-75
2022/08/04 05:55:32;;;;;;;4.40;2.85;;;;;;;18.96;55.96;100845.75;4889465;29;20495;-76
2022/08/04 05:58:03;;;;;;;4.47;2.35;;;;;;;18.82;55.76;100850.19;4885921;29;20100;-76
2022/08/04 06:00:33;;;;;;;3.30;2.50;;;;;;;18.76;56.26;100855.38;4885917;29;20522;-76
2022/08/04 06:03:02;;;;;;;4.50;2.63;;;;;;;18.67;56.85;100853.69;4888817;29;20059;-76
2022/08/04 06:05:31;;;;;;;9.00;2.30;;;;;;;18.58;57.40;100865.06;4894071;29;20554;-76
2022/08/04 06:08:00;;;;;;;3.13;2.28;;;;;;;18.52;57.17;100866.81;4896517;29;20100;-75
2022/08/04 06:10:29;;;;;;;5.43;2.40;;;;;;;18.49;57.13;100862.44;4895311;29;20634;-77
2022/08/04 06:13:02;;;;;;;3.67;2.33;;;;;;;18.50;57.05;100869.44;4896311;29;20117;-75
2022/08/04 06:15:31;;;;;;;;;;;;;;;18.49;57.41;100870.31;4889442;29;20057;-75
2022/08/04 06:18:04;;;;;;;4.07;2.63;;;;;;;18.48;58.24;100860.69;4887669;29;20458;-76
2022/08/04 06:20:36;;;;;;;5.38;2.75;;;;;;;18.47;58.28;100866.81;4884326;29;20141;-77
2022/08/04 06:23:16;;;;;;;2.40;2.05;;;;;;;18.41;58.34;100874.69;4895467;29;20049;-76
2022/08/04 06:25:49;;;;;;;4.85;2.38;;;;;;;18.30;59.19;100868.56;4890253;29;20567;-75
2022/08/04 06:28:20;;;;;;;5.13;2.38;;;;;;;18.19;59.06;100877.31;4896656;29;20103;-75
2022/08/04 06:30:51;;;;;;;2.97;2.35;;;;;;;18.13;59.76;100872.06;4891311;29;20100;-76
2022/08/04 06:33:32;;;;;;;2.88;2.30;;;;;;;18.06;59.93;100872.94;4888565;29;20543;-75
2022/08/04 06:36:02;;;;;;;3.78;2.25;;;;;;;18.04;59.96;100874.69;4889172;29;20103;-77
2022/08/04 06:38:34;;;;;;;4.35;2.67;;;;;;;18.04;59.37;100882.53;4907956;29;20056;-75
2022/08/04 06:41:08;;;;;;;3.20;2.28;;;;;;;17.97;60.37;100872.94;4909690;29;20075;-77
2022/08/04 06:43:38;;;;;;;5.53;2.08;;;;;;;17.92;60.50;100874.69;4895390;29;20044;-76
2022/08/04 06:46:10;;;;;;;7.15;2.55;;;;;;;17.90;60.46;100886.88;4897783;29;20562;-77
2022/08/04 06:48:39;;;;;;;3.47;2.33;;;;;;;17.91;60.87;100894.75;4897381;29;20056;-76
2022/08/04 06:51:09;;;;;;;4.70;2.20;;;;;;;17.89;60.29;100891.25;4898905;29;20518;-78
2022/08/04 06:53:37;;;;;;;4.25;2.40;;;;;;;17.86;60.77;100890.38;4894068;29;20117;-77
2022/08/04 06:56:07;;;;;;;3.65;2.50;;;;;;;17.78;61.00;100906.91;4891792;29;20059;-76
2022/08/04 06:58:38;;;;;;;4.25;2.33;;;;;;;17.74;61.24;100902.53;4898598;29;20135;-75
2022/08/04 07:01:08;;;;;;;4.28;2.30;;;;;;;17.73;60.85;100905.13;4896353;29;20064;-76
2022/08/04 07:03:38;;;;;;;5.22;2.45;;;;;;;17.70;60.60;100900.75;4899446;29;20403;-76
2022/08/04 07:06:06;;;;;;;3.17;2.30;;;;;;;17.67;60.27;100900.75;4891328;29;20064;-76
2022/08/04 07:08:36;;;;;;;2.67;2.00;;;;;;;17.65;60.85;100905.13;4898942;29;20514;-76
2022/08/04 07:11:05;;;;;;;2.88;1.95;;;;;;;17.66;61.33;100909.50;4901342;29;20517;-77
2022/08/04 07:13:37;;;;;;;3.42;1.83;;;;;;;17.64;61.97;100908.63;4898219;29;20103;-76
2022/08/04 07:16:09;;;;;;;3.65;2.25;;;;;;;17.62;61.61;100917.34;4888562;29;20056;-77
2022/08/04 07:18:38;;;;;;;4.53;1.90;;;;;;;17.53;62.68;100918.16;4890238;29;20053;-76
2022/08/04 07:21:06;;;;;;;4.25;2.22;;;;;;;17.38;63.27;100913.75;4895839;29;20071;-76
2022/08/04 07:23:35;;;;;;;2.50;1.50;;;;;;;17.32;63.16;100918.97;4891797;29;20076;-76
2022/08/04 07:26:04;;;;;;;2.78;1.92;;;;;;;17.31;63.22;100918.06;4901170;29;20055;-77
2022/08/04 07:28:32;;;;;;;3.72;2.03;;;;;;;17.30;63.57;100925.94;4894709;29;20051;-75
2022/08/04 07:31:04;;;;;;;4.57;2.00;;;;;;;17.23;63.58;100918.94;4888260;29;20491;-76
2022/08/04 07:33:34;;;;;;;3.28;2.17;;;;;;;17.18;64.14;100921.50;4884483;29;20041;-76
2022/08/04 07:36:03;;;;;;;3.53;1.90;;;;;;;17.18;63.58;100918.91;4896212;29;20044;-77
2022/08/04 07:38:31;;;;;;;4.10;1.83;;;;;;;17.13;65.09;100921.50;4900914;29;20499;-75
2022/08/04 07:41:02;;;;;;;2.38;1.60;;;;;;;17.02;65.20;100924.88;4893039;29;20114;-75
2022/08/04 07:43:31;;;;;;;2.95;2.35;;;;;;;16.97;65.25;100922.25;4889540;29;20128;-76
2022/08/04 07:46:00;;;;;;;4.07;1.95;;;;;;;17.00;64.41;100926.66;4891486;29;20143;-76
2022/08/04 07:48:29;;;;;;;5.05;1.88;;;;;;;17.00;64.92;100924.91;4895560;29;20052;-76
2022/08/04 07:51:00;;;;;;;4.28;2.38;;;;;;;17.00;64.60;100934.50;4883990;29;20151;-76
2022/08/04 07:53:30;;;;;;;2.65;1.92;;;;;;;16.99;64.37;100936.19;4889610;29;20127;-77
2022/08/04 07:55:59;;;;;;;3.13;2.08;;;;;;;16.98;64.92;100941.44;4889176;29;20105;-76
2022/08/04 07:58:28;;;;;;;4.03;2.17;;;;;;;16.96;64.46;100938.81;4890320;29;20491;-76
2022/08/04 08:00:56;;;;;;;2.65;1.85;;;;;;;16.89;64.93;100945.72;4893132;29;20068;-77
2022/08/04 08:03:27;;;;;;;3.60;2.00;;;;;;;16.93;65.09;100952.75;4893115;29;20814;-77
2022/08/04 08:05:55;;;;;;;4.50;1.92;;;;;;;16.90;65.06;100951.81;4889416;29;20111;-77
2022/08/04 08:08:28;;;;;;;4.50;2.00;;;;;;;16.87;65.27;100955.31;4892567;29;20048;-78
2022/08/04 08:10:57;;;;;;;3.17;2.00;;;;;;;16.79;65.07;100935.16;4896041;29;20049;-77
2022/08/04 08:13:26;;;;;;;6.13;2.05;;;;;;;16.80;64.67;100956.13;4892275;29;20052;-77
2022/08/04 08:15:55;;;;;;;3.33;2.28;;;;;;;16.81;65.07;100951.78;4891077;29;20049;-76
2022/08/04 08:18:25;;;;;;;3.17;2.00;;;;;;;16.76;65.63;100955.19;4899339;29;20055;-77
2022/08/04 08:20:54;;;;;;;3.35;1.88;;;;;;;16.70;66.75;100962.13;4892983;29;20041;-75
2022/08/04 08:23:23;;;;;;;3.63;1.77;;;;;;;16.60;68.05;100960.28;4889850;29;20052;-76
2022/08/04 08:25:53;;;;;;;5.78;2.17;;;;;;;16.53;67.81;100955.00;4893283;29;20719;-77
2022/08/04 08:28:22;;;;;;;3.60;1.95;;;;;;;16.50;67.54;100957.59;4893428;29;20056;-77
2022/08/04 08:30:50;;;;;;;3.03;1.80;;;;;;;16.50;68.04;100956.72;4895540;29;20503;-76
2022/08/04 08:33:19;;;;;;;2.72;1.88;;;;;;;16.48;67.82;100956.72;4896800;29;20571;-77
2022/08/04 08:35:58;;;;;;;2.45;1.83;;;;;;;16.48;68.18;100953.22;4889365;29;20543;-76
2022/08/04 08:38:40;;;;;;;3.00;1.73;;;;;;;16.44;68.05;100947.09;4887919;29;20057;-76
2022/08/04 08:41:52;;;;;;;3.47;1.67;;;;;;;16.45;67.85;100945.38;4889345;29;20082;-76
2022/08/04 08:44:47;;;;;;;3.28;2.20;;;;;;;16.39;68.65;100948.78;4887708;29;20503;-75
2022/08/04 08:47:37;;;;;;;3.08;1.98;;;;;;;16.36;68.37;100954.00;4892047;29;20052;-77
2022/08/04 08:50:29;;;;;;;3.25;1.92;;;;;;;16.33;69.08;100959.19;4892385;29;21055;-76
2022/08/04 08:53:23;;;;;;;4.47;2.13;;;;;;;16.30;68.12;100953.94;4889334;29;20107;-75
2022/08/04 08:56:11;;;;;;;3.30;2.03;;;;;;;16.29;68.27;100942.63;4889160;29;20057;-76
2022/08/04 08:59:09;;;;;;;3.13;2.13;;;;;;;16.29;68.69;100942.63;4888822;29;20536;-76
2022/08/04 09:01:59;;;;;;;4.05;2.33;;;;;;;16.30;69.00;100939.13;4886857;29;20052;-75
2022/08/04 09:05:06;;;;;;;4.28;2.55;;;;;;;16.32;69.08;100937.41;4890354;29;20143;-77
2022/08/04 09:08:02;;;;;;;5.15;2.38;;;;;;;16.33;68.97;100944.41;4845092;29;20056;-76
2022/08/04 09:10:40;;;;;;;4.15;2.20;;;;;;;16.22;70.88;100919.94;4890640;29;21073;-76
2022/08/04 09:13:25;;;;;;;6.20;2.40;;;;;;;16.25;70.62;100927.78;4890489;29;20120;-77
2022/08/04 09:16:03;;;;;;;3.55;2.10;;;;;;;16.24;70.21;100940.81;4893368;29;20108;-77
2022/08/04 09:18:38;;;;;;;4.68;2.35;;;;;;;16.30;70.64;100943.50;4893769;29;20827;-75
2022/08/04 09:21:14;;;;;;;3.55;2.67;;;;;;;16.36;70.37;100951.41;4888774;29;20052;-77
2022/08/04 09:23:52;;;;;;;5.13;2.33;;;;;;;16.39;70.31;100937.47;4896872;29;20128;-76
2022/08/04 09:26:26;;;;;;;3.70;2.15;;;;;;;16.41;70.77;100939.25;4887335;29;20108;-76
2022/08/04 09:29:03;;;;;;;3.95;2.38;;;;;;;16.46;70.27;100940.16;4889537;29;20179;-76
2022/08/04 09:31:39;;;;;;;3.90;2.17;;;;;;;16.50;69.74;100938.44;4892311;29;20051;-77
2022/08/04 09:34:14;;;;;;;4.78;2.25;;;;;;;16.54;69.75;100946.31;4893040;29;20048;-76
2022/08/04 09:36:52;;;;;;;4.00;2.38;;;;;;;16.58;70.03;100955.03;4892191;29;20068;-75
2022/08/04 09:39:27;;;;;;;5.15;2.22;;;;;;;16.57;70.60;100947.22;4890766;29;20047;-75
2022/08/04 09:42:09;;;;;;;4.43;2.28;;;;;;;16.55;70.39;100950.66;4891349;29;20052;-76
2022/08/04 09:44:45;;;;;;;4.20;2.53;;;;;;;16.54;70.82;100948.06;4897747;29;20060;-76
2022/08/04 09:47:32;;;;;;;3.58;2.28;;;;;;;16.53;70.39;100951.53;4889847;29;20061;-76
2022/08/04 09:50:12;;;;;;;5.85;2.45;;;;;;;16.48;70.40;100953.22;4888397;29;20051;-75
2022/08/04 09:52:49;;;;;;;6.35;2.88;;;;;;;16.40;71.10;100955.78;4889965;29;20057;-76
2022/08/04 09:55:32;;;;;;;5.45;2.58;;;;;;;16.40;71.57;100966.25;4890558;29;20063;-76
2022/08/04 09:58:06;;;;;;;;;;;;;;;16.42;71.56;100958.41;4891612;29;20048;-75
2022/08/04 10:00:48;;;;;;;3.60;2.47;;;;;;;16.39;71.99;100955.75;4889966;29;19931;-75
2022/08/04 10:03:24;;;;;;;3.15;2.33;;;;;;;16.37;72.25;100960.97;4892102;29;20629;-78
2022/08/04 10:06:08;;;;;;;4.25;2.53;;;;;;;16.40;72.36;100960.13;4897015;29;20055;-78
2022/08/04 10:08:55;;;;;;;4.93;2.72;;;;;;;16.44;71.82;100961.91;4892375;29;20055;-78
2022/08/04 10:11:47;;;;;;;4.30;3.10;;;;;;;16.49;71.94;100960.19;4889493;29;20116;-77
2022/08/04 10:14:33;;;;;;;3.95;2.83;;;;;;;16.53;70.99;100962.84;4888339;29;20053;-76
2022/08/04 10:17:25;;;;;;;3.28;2.53;;;;;;;16.54;72.28;100962.00;4898683;29;20060;-76
2022/08/04 10:20:04;;;;;;;5.22;2.45;;;;;;;16.54;71.56;100956.78;4894945;29;20048;-76
2022/08/04 10:22:38;;;;;;;4.93;2.40;;;;;;;16.51;72.23;100956.72;4894235;29;20551;-77
2022/08/04 10:25:23;;;;;;;3.35;2.45;;;;;;;16.46;71.69;100955.81;4890208;29;20063;-76
2022/08/04 10:27:56;;;;;;;5.07;2.38;;;;;;;16.45;72.40;100958.44;4889146;29;20044;-76
2022/08/04 10:30:27;;;;;;;4.22;2.38;;;;;;;16.46;73.09;100962.78;4892347;29;20055;-76
2022/08/04 10:33:03;;;;;;;4.35;2.42;;;;;;;16.43;72.47;100968.88;4891664;29;20056;-76
2022/08/04 10:35:38;;;;;;;4.65;2.53;;;;;;;16.40;72.76;100968.84;4890349;29;20060;-75
2022/08/04 10:38:16;;;;;;;3.42;2.13;;;;;;;16.39;72.25;100961.84;4883860;29;20044;-76
2022/08/04 10:40:49;;;;;;;3.67;2.38;;;;;;;16.38;72.47;100957.50;4878654;29;20403;-76
2022/08/04 10:43:22;;;;;;;;;;;;;;;16.37;71.65;100958.34;4888094;29;20059;-76
2022/08/04 10:45:59;;;;;;;4.05;2.20;;;;;;;16.39;71.63;100959.25;4891284;29;19929;-76
2022/08/04 10:48:45;;;;;;;5.20;2.40;;;;;;;16.39;71.92;100959.25;4890492;29;20052;-76
2022/08/04 10:51:22;;;;;;;6.60;2.42;;;;;;;16.40;71.44;100960.13;4891807;29;20167;-76
2022/08/04 10:53:56;;;;;;;2.92;2.15;;;;;;;16.38;71.53;100957.50;4894220;29;20518;-77
2022/08/04 10:56:33;;;;;;;3.30;2.38;;;;;;;16.37;72.01;100953.13;4892135;29;20060;-76
2022/08/04 10:59:07;;;;;;;5.10;2.10;;;;;;;16.37;71.72;100960.97;4892336;29;20527;-77
2022/08/04 11:01:40;;;;;;;4.85;2.33;;;;;;;16.36;71.42;100966.19;4890083;29;20053;-77
2022/08/04 11:04:17;;;;;;;5.25;2.47;;;;;;;16.34;71.23;100967.03;4894294;29;20048;-76
2022/08/04 11:06:50;;;;;;;3.00;2.10;;;;;;;16.32;71.38;100963.53;4893059;29;20703;-77
2022/08/04 11:09:21;;;;;;;3.78;2.10;;;;;;;16.30;71.57;100965.25;4892435;29;20165;-77
2022/08/04 11:11:55;;;;;;;4.55;2.85;;;;;;;16.29;71.80;100973.09;4889701;29;20411;-77
2022/08/04 11:14:29;;;;;;;3.78;2.42;;;;;;;16.26;71.52;100976.56;4895537;29;20148;-76
2022/08/04 11:17:05;;;;;;;4.90;3.03;;;;;;;16.25;71.82;100977.41;4892367;29;20079;-76
2022/08/04 11:19:42;;;;;;;3.83;1.92;;;;;;;16.24;71.03;100985.19;4892088;29;20468;-76
2022/08/04 11:22:23;;;;;;;3.08;2.10;;;;;;;16.23;71.59;100979.13;4894485;29;20693;-75
2022/08/04 11:25:02;;;;;;;5.68;2.55;;;;;;;16.21;72.26;100978.22;4891960;29;20606;-76
2022/08/04 11:27:41;;;;;;;5.32;2.65;;;;;;;16.20;71.82;100984.31;4901113;29;20059;-76
2022/08/04 11:30:12;;;;;;;7.70;1.98;;;;;;;16.17;71.41;100979.06;4890696;29;20055;-77
2022/08/04 11:32:50;;;;;;;4.50;1.93;;;;;;;16.16;72.24;100976.44;4893641;29;20092;-76
2022/08/04 11:35:28;;;;;;;2.28;1.98;;;;;;;16.12;72.58;100984.22;4894500;29;20075;-77
2022/08/04 11:38:09;;;;;;;2.97;1.95;;;;;;;16.10;72.92;100988.56;4894721;29;20111;-77
2022/08/04 11:40:42;;;;;;;4.93;2.92;;;;;;;16.06;74.86;100986.78;4892581;29;20053;-76
2022/08/04 11:43:17;;;;;;;5.57;2.22;;;;;;;15.94;75.28;100980.53;4887738;29;20045;-76
2022/08/04 11:45:53;;;;;;;3.30;2.50;;;;;;;15.83;76.41;100983.91;4889541;29;20131;-76
2022/08/04 11:48:30;;;;;;;4.95;2.20;;;;;;;15.76;76.92;100982.09;4891809;29;20056;-77
2022/08/04 11:51:01;;;;;;;3.47;1.90;;;;;;;15.76;76.93;100982.09;4895133;29;20052;-75
2022/08/04 11:53:32;;;;;;;4.15;2.20;;;;;;;15.78;76.37;100984.72;4887861;29;20138;-76
2022/08/04 11:56:04;;;;;;;3.13;2.05;;;;;;;15.81;76.09;100984.75;4888066;29;20113;-77
2022/08/04 11:58:32;;;;;;;3.20;2.15;;;;;;;15.81;75.70;100989.97;4895027;29;20053;-77
2022/08/04 12:01:09;;;;;;;3.33;1.95;;;;;;;15.81;75.55;100989.97;4889006;29;20045;-77
2022/08/04 12:03:49;;;;;;;4.95;2.50;;;;;;;15.80;75.89;100988.22;4890787;29;20068;-76
2022/08/04 12:06:22;;;;;;;3.67;2.28;;;;;;;15.74;77.41;100982.94;4885901;29;20052;-77
2022/08/04 12:09:06;;;;;;;4.35;2.35;;;;;;;15.70;76.98;100990.72;4895856;29;20113;-77
2022/08/04 12:11:55;;;;;;;7.47;3.22;;;;;;;15.71;76.50;100983.75;4890656;29;20060;-76
2022/08/04 12:14:31;;;;;;;4.28;2.67;;;;;;;15.67;78.12;100985.44;4894408;29;20060;-76
2022/08/04 12:17:01;;;;;;;4.18;2.65;;;;;;;15.60;78.96;100986.22;4893080;29;20115;-76
2022/08/04 12:19:39;;;;;;;5.60;2.50;;;;;;;15.55;78.82;100982.66;4892007;29;20060;-76